sensor_id;sensor_type;location;lat;lon;timestamp;P1;durP1;ratioP1;P2;durP2;ratioP2
85498;SDS011;75903;52.510;13.396;2024-02-16T00:00:39;9.73;;;5.00;;
85498;SDS011;75903;52.510;13.396;2024-02-16T00:03:04;10.68;;;4.85;;
85498;SDS011;75903;52.510;13.396;2024-02-16T00:05:30;7.95;;;4.72;;
85498;SDS011;75903;52.510;13.396;2024-02-16T00:07:55;8.43;;;4.80;;
85498;SDS011;75903;52.510;13.396;2024-02-16T00:10:20;8.32;;;5.03;;
85498;SDS011;75903;52.510;13.396;2024-02-16T00:12:46;10.63;;;5.13;;
85498;SDS011;75903;52.510;13.396;2024-02-16T00:15:12;8.07;;;4.72;;
85498;SDS011;75903;52.510;13.396;2024-02-16T00:17:37;8.98;;;5.38;;
85498;SDS011;75903;52.510;13.396;2024-02-16T00:20:03;10.70;;;5.00;;
85498;SDS011;75903;52.510;13.396;2024-02-16T00:22:29;8.77;;;4.30;;
85498;SDS011;75903;52.510;13.396;2024-02-16T00:24:54;8.82;;;5.53;;
85498;SDS011;75903;52.510;13.396;2024-02-16T00:27:20;11.80;;;5.63;;
85498;SDS011;75903;52.510;13.396;2024-02-16T00:29:45;10.55;;;5.88;;
85498;SDS011;75903;52.510;13.396;2024-02-16T00:32:14;9.50;;;5.68;;
85498;SDS011;75903;52.510;13.396;2024-02-16T00:34:40;10.27;;;5.55;;
85498;SDS011;75903;52.510;13.396;2024-02-16T00:37:06;11.95;;;7.15;;
85498;SDS011;75903;52.510;13.396;2024-02-16T00:39:36;13.65;;;8.07;;
85498;SDS011;75903;52.510;13.396;2024-02-16T00:42:05;10.90;;;6.63;;
85498;SDS011;75903;52.510;13.396;2024-02-16T00:44:30;11.23;;;6.30;;
85498;SDS011;75903;52.510;13.396;2024-02-16T00:46:56;11.23;;;6.07;;
85498;SDS011;75903;52.510;13.396;2024-02-16T00:49:21;12.25;;;6.57;;
85498;SDS011;75903;52.510;13.396;2024-02-16T00:51:47;11.75;;;6.35;;
85498;SDS011;75903;52.510;13.396;2024-02-16T00:54:12;11.60;;;6.45;;
85498;SDS011;75903;52.510;13.396;2024-02-16T00:56:38;11.48;;;6.10;;
85498;SDS011;75903;52.510;13.396;2024-02-16T00:59:04;11.25;;;6.32;;
85498;SDS011;75903;52.510;13.396;2024-02-16T01:01:30;13.05;;;7.13;;
85498;SDS011;75903;52.510;13.396;2024-02-16T01:03:55;12.60;;;6.75;;
85498;SDS011;75903;52.510;13.396;2024-02-16T01:06:21;12.57;;;6.47;;
85498;SDS011;75903;52.510;13.396;2024-02-16T01:08:46;14.75;;;7.05;;
85498;SDS011;75903;52.510;13.396;2024-02-16T01:11:12;12.27;;;6.57;;
85498;SDS011;75903;52.510;13.396;2024-02-16T01:13:38;13.30;;;6.93;;
85498;SDS011;75903;52.510;13.396;2024-02-16T01:16:04;12.32;;;6.72;;
85498;SDS011;75903;52.510;13.396;2024-02-16T01:18:30;16.48;;;7.35;;
85498;SDS011;75903;52.510;13.396;2024-02-16T01:20:57;15.07;;;7.93;;
85498;SDS011;75903;52.510;13.396;2024-02-16T01:23:23;13.30;;;7.22;;
85498;SDS011;75903;52.510;13.396;2024-02-16T01:25:48;13.73;;;7.38;;
85498;SDS011;75903;52.510;13.396;2024-02-16T01:28:14;12.93;;;7.50;;
85498;SDS011;75903;52.510;13.396;2024-02-16T01:30:39;12.75;;;8.50;;
85498;SDS011;75903;52.510;13.396;2024-02-16T01:33:05;13.93;;;7.82;;
85498;SDS011;75903;52.510;13.396;2024-02-16T01:35:32;12.02;;;6.88;;
85498;SDS011;75903;52.510;13.396;2024-02-16T01:37:57;13.20;;;7.63;;
85498;SDS011;75903;52.510;13.396;2024-02-16T01:40:23;16.48;;;8.30;;
85498;SDS011;75903;52.510;13.396;2024-02-16T01:42:51;14.65;;;7.55;;
85498;SDS011;75903;52.510;13.396;2024-02-16T01:45:18;15.90;;;7.55;;
85498;SDS011;75903;52.510;13.396;2024-02-16T01:47:44;13.63;;;7.43;;
85498;SDS011;75903;52.510;13.396;2024-02-16T01:50:12;13.02;;;7.68;;
85498;SDS011;75903;52.510;13.396;2024-02-16T01:52:37;16.83;;;8.32;;
85498;SDS011;75903;52.510;13.396;2024-02-16T01:55:06;14.50;;;7.63;;
85498;SDS011;75903;52.510;13.396;2024-02-16T01:57:35;14.13;;;8.02;;
85498;SDS011;75903;52.510;13.396;2024-02-16T02:00:01;13.45;;;8.00;;
85498;SDS011;75903;52.510;13.396;2024-02-16T02:02:28;16.40;;;8.13;;
85498;SDS011;75903;52.510;13.396;2024-02-16T02:04:53;14.98;;;7.50;;
85498;SDS011;75903;52.510;13.396;2024-02-16T02:07:18;13.82;;;7.53;;
85498;SDS011;75903;52.510;13.396;2024-02-16T02:09:45;13.63;;;8.10;;
85498;SDS011;75903;52.510;13.396;2024-02-16T02:12:10;16.45;;;8.63;;
85498;SDS011;75903;52.510;13.396;2024-02-16T02:14:36;15.60;;;8.50;;
85498;SDS011;75903;52.510;13.396;2024-02-16T02:17:02;15.38;;;8.45;;
85498;SDS011;75903;52.510;13.396;2024-02-16T02:19:28;16.58;;;8.73;;
85498;SDS011;75903;52.510;13.396;2024-02-16T02:21:54;14.73;;;9.05;;
85498;SDS011;75903;52.510;13.396;2024-02-16T02:24:20;14.63;;;8.98;;
85498;SDS011;75903;52.510;13.396;2024-02-16T02:26:46;19.67;;;9.00;;
85498;SDS011;75903;52.510;13.396;2024-02-16T02:29:11;17.27;;;9.70;;
85498;SDS011;75903;52.510;13.396;2024-02-16T02:31:37;19.63;;;9.57;;
85498;SDS011;75903;52.510;13.396;2024-02-16T02:34:02;20.80;;;9.95;;
85498;SDS011;75903;52.510;13.396;2024-02-16T02:36:27;15.55;;;9.27;;
85498;SDS011;75903;52.510;13.396;2024-02-16T02:38:52;16.00;;;8.90;;
85498;SDS011;75903;52.510;13.396;2024-02-16T02:41:18;18.85;;;9.60;;
85498;SDS011;75903;52.510;13.396;2024-02-16T02:43:45;18.38;;;10.00;;
85498;SDS011;75903;52.510;13.396;2024-02-16T02:46:14;18.42;;;9.60;;
85498;SDS011;75903;52.510;13.396;2024-02-16T02:48:41;15.88;;;9.00;;
85498;SDS011;75903;52.510;13.396;2024-02-16T02:51:08;17.02;;;9.35;;
85498;SDS011;75903;52.510;13.396;2024-02-16T02:53:34;15.30;;;9.25;;
85498;SDS011;75903;52.510;13.396;2024-02-16T02:55:59;17.83;;;9.68;;
85498;SDS011;75903;52.510;13.396;2024-02-16T02:58:25;17.80;;;9.57;;
85498;SDS011;75903;52.510;13.396;2024-02-16T03:00:50;16.98;;;9.30;;
85498;SDS011;75903;52.510;13.396;2024-02-16T03:03:15;15.88;;;9.18;;
85498;SDS011;75903;52.510;13.396;2024-02-16T03:05:42;15.20;;;9.05;;
85498;SDS011;75903;52.510;13.396;2024-02-16T03:08:07;15.60;;;10.05;;
85498;SDS011;75903;52.510;13.396;2024-02-16T03:10:33;18.27;;;9.68;;
85498;SDS011;75903;52.510;13.396;2024-02-16T03:13:03;15.82;;;9.57;;
85498;SDS011;75903;52.510;13.396;2024-02-16T03:15:28;19.80;;;10.10;;
85498;SDS011;75903;52.510;13.396;2024-02-16T03:17:54;17.48;;;9.73;;
85498;SDS011;75903;52.510;13.396;2024-02-16T03:20:20;15.15;;;9.30;;
85498;SDS011;75903;52.510;13.396;2024-02-16T03:22:46;15.13;;;8.40;;
85498;SDS011;75903;52.510;13.396;2024-02-16T03:25:12;15.75;;;8.85;;
85498;SDS011;75903;52.510;13.396;2024-02-16T03:27:37;16.75;;;9.05;;
85498;SDS011;75903;52.510;13.396;2024-02-16T03:30:03;15.43;;;9.10;;
85498;SDS011;75903;52.510;13.396;2024-02-16T03:32:29;16.88;;;9.50;;
85498;SDS011;75903;52.510;13.396;2024-02-16T03:34:59;16.77;;;9.13;;
85498;SDS011;75903;52.510;13.396;2024-02-16T03:39:50;15.63;;;8.52;;
85498;SDS011;75903;52.510;13.396;2024-02-16T03:42:16;16.00;;;8.65;;
85498;SDS011;75903;52.510;13.396;2024-02-16T03:44:43;15.63;;;8.93;;
85498;SDS011;75903;52.510;13.396;2024-02-16T03:47:09;13.70;;;7.78;;
85498;SDS011;75903;52.510;13.396;2024-02-16T03:49:34;15.95;;;8.57;;
85498;SDS011;75903;52.510;13.396;2024-02-16T03:52:00;17.52;;;8.95;;
85498;SDS011;75903;52.510;13.396;2024-02-16T03:54:26;16.15;;;9.30;;
85498;SDS011;75903;52.510;13.396;2024-02-16T03:56:54;15.43;;;8.88;;
85498;SDS011;75903;52.510;13.396;2024-02-16T04:01:45;12.77;;;7.43;;
85498;SDS011;75903;52.510;13.396;2024-02-16T04:04:11;15.20;;;8.80;;
85498;SDS011;75903;52.510;13.396;2024-02-16T04:06:36;16.30;;;9.10;;
85498;SDS011;75903;52.510;13.396;2024-02-16T04:09:03;16.90;;;9.27;;
85498;SDS011;75903;52.510;13.396;2024-02-16T04:11:28;16.65;;;8.57;;
85498;SDS011;75903;52.510;13.396;2024-02-16T04:13:55;14.43;;;9.13;;
85498;SDS011;75903;52.510;13.396;2024-02-16T04:16:20;14.93;;;9.07;;
85498;SDS011;75903;52.510;13.396;2024-02-16T04:18:47;16.92;;;8.63;;
85498;SDS011;75903;52.510;13.396;2024-02-16T04:21:12;15.75;;;9.45;;
85498;SDS011;75903;52.510;13.396;2024-02-16T04:23:38;15.05;;;9.82;;
85498;SDS011;75903;52.510;13.396;2024-02-16T04:26:03;18.08;;;9.20;;
85498;SDS011;75903;52.510;13.396;2024-02-16T04:28:31;16.00;;;9.30;;
85498;SDS011;75903;52.510;13.396;2024-02-16T04:30:56;17.95;;;8.88;;
85498;SDS011;75903;52.510;13.396;2024-02-16T04:33:22;15.18;;;8.23;;
85498;SDS011;75903;52.510;13.396;2024-02-16T04:35:47;15.85;;;9.10;;
85498;SDS011;75903;52.510;13.396;2024-02-16T04:38:13;13.95;;;7.85;;
85498;SDS011;75903;52.510;13.396;2024-02-16T04:40:38;13.55;;;8.80;;
85498;SDS011;75903;52.510;13.396;2024-02-16T04:43:04;15.60;;;8.23;;
85498;SDS011;75903;52.510;13.396;2024-02-16T04:45:29;16.33;;;8.80;;
85498;SDS011;75903;52.510;13.396;2024-02-16T04:47:55;13.73;;;8.02;;
85498;SDS011;75903;52.510;13.396;2024-02-16T04:50:20;16.55;;;8.57;;
85498;SDS011;75903;52.510;13.396;2024-02-16T04:52:46;16.02;;;8.52;;
85498;SDS011;75903;52.510;13.396;2024-02-16T04:55:11;16.30;;;8.38;;
85498;SDS011;75903;52.510;13.396;2024-02-16T04:57:37;14.02;;;8.40;;
85498;SDS011;75903;52.510;13.396;2024-02-16T05:00:02;16.17;;;8.13;;
85498;SDS011;75903;52.510;13.396;2024-02-16T05:02:28;14.23;;;8.15;;
85498;SDS011;75903;52.510;13.396;2024-02-16T05:04:53;14.85;;;8.10;;
85498;SDS011;75903;52.510;13.396;2024-02-16T05:07:19;15.05;;;8.13;;
85498;SDS011;75903;52.510;13.396;2024-02-16T05:09:44;13.85;;;7.68;;
85498;SDS011;75903;52.510;13.396;2024-02-16T05:12:10;14.13;;;7.88;;
85498;SDS011;75903;52.510;13.396;2024-02-16T05:14:35;15.10;;;7.72;;
85498;SDS011;75903;52.510;13.396;2024-02-16T05:17:01;17.55;;;7.50;;
85498;SDS011;75903;52.510;13.396;2024-02-16T05:19:26;11.93;;;6.80;;
85498;SDS011;75903;52.510;13.396;2024-02-16T05:21:52;14.40;;;7.97;;
85498;SDS011;75903;52.510;13.396;2024-02-16T05:24:17;13.43;;;7.50;;
85498;SDS011;75903;52.510;13.396;2024-02-16T05:26:42;15.35;;;8.07;;
85498;SDS011;75903;52.510;13.396;2024-02-16T05:29:08;13.10;;;7.15;;
85498;SDS011;75903;52.510;13.396;2024-02-16T05:31:36;13.15;;;7.78;;
85498;SDS011;75903;52.510;13.396;2024-02-16T05:34:01;11.50;;;6.88;;
85498;SDS011;75903;52.510;13.396;2024-02-16T05:36:26;16.98;;;7.82;;
85498;SDS011;75903;52.510;13.396;2024-02-16T05:38:52;12.45;;;7.32;;
85498;SDS011;75903;52.510;13.396;2024-02-16T05:41:19;14.68;;;7.50;;
85498;SDS011;75903;52.510;13.396;2024-02-16T05:43:45;15.38;;;7.32;;
85498;SDS011;75903;52.510;13.396;2024-02-16T05:46:17;13.77;;;7.47;;
85498;SDS011;75903;52.510;13.396;2024-02-16T05:48:45;13.60;;;7.47;;
85498;SDS011;75903;52.510;13.396;2024-02-16T05:51:11;15.73;;;8.13;;
85498;SDS011;75903;52.510;13.396;2024-02-16T05:53:39;10.82;;;6.25;;
85498;SDS011;75903;52.510;13.396;2024-02-16T05:56:06;17.50;;;8.50;;
85498;SDS011;75903;52.510;13.396;2024-02-16T05:58:31;13.20;;;7.15;;
85498;SDS011;75903;52.510;13.396;2024-02-16T06:00:58;12.85;;;7.38;;
85498;SDS011;75903;52.510;13.396;2024-02-16T06:03:24;15.90;;;7.88;;
85498;SDS011;75903;52.510;13.396;2024-02-16T06:05:49;11.80;;;6.95;;
85498;SDS011;75903;52.510;13.396;2024-02-16T06:08:14;13.00;;;6.80;;
85498;SDS011;75903;52.510;13.396;2024-02-16T06:10:44;11.75;;;6.40;;
85498;SDS011;75903;52.510;13.396;2024-02-16T06:13:16;12.32;;;6.10;;
85498;SDS011;75903;52.510;13.396;2024-02-16T06:15:41;13.10;;;6.70;;
85498;SDS011;75903;52.510;13.396;2024-02-16T06:18:07;13.60;;;8.00;;
85498;SDS011;75903;52.510;13.396;2024-02-16T06:20:32;14.80;;;7.05;;
85498;SDS011;75903;52.510;13.396;2024-02-16T06:22:57;12.43;;;5.97;;
85498;SDS011;75903;52.510;13.396;2024-02-16T06:25:23;14.93;;;6.22;;
85498;SDS011;75903;52.510;13.396;2024-02-16T06:27:48;11.52;;;6.18;;
85498;SDS011;75903;52.510;13.396;2024-02-16T06:30:13;15.65;;;6.78;;
85498;SDS011;75903;52.510;13.396;2024-02-16T06:32:39;11.63;;;6.68;;
85498;SDS011;75903;52.510;13.396;2024-02-16T06:35:08;13.75;;;7.18;;
85498;SDS011;75903;52.510;13.396;2024-02-16T06:37:34;13.60;;;7.25;;
85498;SDS011;75903;52.510;13.396;2024-02-16T06:39:59;14.77;;;7.25;;
85498;SDS011;75903;52.510;13.396;2024-02-16T06:42:25;14.45;;;7.22;;
85498;SDS011;75903;52.510;13.396;2024-02-16T06:44:50;14.18;;;7.32;;
85498;SDS011;75903;52.510;13.396;2024-02-16T06:47:15;13.23;;;6.60;;
85498;SDS011;75903;52.510;13.396;2024-02-16T06:49:40;16.80;;;7.53;;
85498;SDS011;75903;52.510;13.396;2024-02-16T06:52:06;14.00;;;7.50;;
85498;SDS011;75903;52.510;13.396;2024-02-16T06:54:32;12.90;;;6.90;;
85498;SDS011;75903;52.510;13.396;2024-02-16T06:56:57;14.50;;;6.88;;
85498;SDS011;75903;52.510;13.396;2024-02-16T06:59:23;12.30;;;6.70;;
85498;SDS011;75903;52.510;13.396;2024-02-16T07:01:48;14.60;;;7.75;;
85498;SDS011;75903;52.510;13.396;2024-02-16T07:04:14;13.57;;;7.25;;
85498;SDS011;75903;52.510;13.396;2024-02-16T07:06:39;14.70;;;7.13;;
85498;SDS011;75903;52.510;13.396;2024-02-16T07:09:05;12.55;;;6.95;;
85498;SDS011;75903;52.510;13.396;2024-02-16T07:11:31;14.23;;;7.15;;
85498;SDS011;75903;52.510;13.396;2024-02-16T07:13:56;15.07;;;7.03;;
85498;SDS011;75903;52.510;13.396;2024-02-16T07:16:21;12.98;;;6.88;;
85498;SDS011;75903;52.510;13.396;2024-02-16T07:18:47;16.33;;;8.40;;
85498;SDS011;75903;52.510;13.396;2024-02-16T07:21:12;15.73;;;7.47;;
85498;SDS011;75903;52.510;13.396;2024-02-16T07:23:38;13.73;;;7.68;;
85498;SDS011;75903;52.510;13.396;2024-02-16T07:26:03;14.88;;;8.32;;
85498;SDS011;75903;52.510;13.396;2024-02-16T07:28:29;15.18;;;7.88;;
85498;SDS011;75903;52.510;13.396;2024-02-16T07:30:55;13.88;;;7.45;;
85498;SDS011;75903;52.510;13.396;2024-02-16T07:33:21;13.27;;;7.72;;
85498;SDS011;75903;52.510;13.396;2024-02-16T07:35:47;11.15;;;7.07;;
85498;SDS011;75903;52.510;13.396;2024-02-16T07:38:12;14.00;;;7.35;;
85498;SDS011;75903;52.510;13.396;2024-02-16T07:40:38;14.32;;;7.63;;
85498;SDS011;75903;52.510;13.396;2024-02-16T07:43:03;14.75;;;7.72;;
85498;SDS011;75903;52.510;13.396;2024-02-16T07:45:29;14.35;;;8.82;;
85498;SDS011;75903;52.510;13.396;2024-02-16T07:47:55;15.40;;;8.73;;
85498;SDS011;75903;52.510;13.396;2024-02-16T07:50:21;17.63;;;9.00;;
85498;SDS011;75903;52.510;13.396;2024-02-16T07:52:47;14.68;;;8.20;;
85498;SDS011;75903;52.510;13.396;2024-02-16T07:55:13;16.33;;;7.72;;
85498;SDS011;75903;52.510;13.396;2024-02-16T07:57:39;14.25;;;7.57;;
85498;SDS011;75903;52.510;13.396;2024-02-16T08:00:04;15.15;;;7.88;;
85498;SDS011;75903;52.510;13.396;2024-02-16T08:02:30;13.05;;;6.63;;
85498;SDS011;75903;52.510;13.396;2024-02-16T08:04:56;13.63;;;7.22;;
85498;SDS011;75903;52.510;13.396;2024-02-16T08:07:21;14.38;;;7.90;;
85498;SDS011;75903;52.510;13.396;2024-02-16T08:09:47;16.98;;;7.45;;
85498;SDS011;75903;52.510;13.396;2024-02-16T08:12:13;13.82;;;7.30;;
85498;SDS011;75903;52.510;13.396;2024-02-16T08:14:39;14.32;;;8.15;;
85498;SDS011;75903;52.510;13.396;2024-02-16T08:17:05;12.85;;;7.50;;
85498;SDS011;75903;52.510;13.396;2024-02-16T08:19:35;14.40;;;7.43;;
85498;SDS011;75903;52.510;13.396;2024-02-16T08:22:02;13.82;;;7.95;;
85498;SDS011;75903;52.510;13.396;2024-02-16T08:24:29;11.95;;;7.40;;
85498;SDS011;75903;52.510;13.396;2024-02-16T08:26:56;14.23;;;7.75;;
85498;SDS011;75903;52.510;13.396;2024-02-16T08:29:21;14.80;;;7.95;;
85498;SDS011;75903;52.510;13.396;2024-02-16T08:31:47;13.02;;;8.00;;
85498;SDS011;75903;52.510;13.396;2024-02-16T08:34:14;15.40;;;7.95;;
85498;SDS011;75903;52.510;13.396;2024-02-16T08:36:43;16.20;;;7.47;;
85498;SDS011;75903;52.510;13.396;2024-02-16T08:39:09;13.73;;;8.05;;
85498;SDS011;75903;52.510;13.396;2024-02-16T08:41:36;13.82;;;8.38;;
85498;SDS011;75903;52.510;13.396;2024-02-16T08:44:02;15.88;;;7.75;;
85498;SDS011;75903;52.510;13.396;2024-02-16T08:46:28;14.52;;;8.48;;
85498;SDS011;75903;52.510;13.396;2024-02-16T08:48:54;15.23;;;7.30;;
85498;SDS011;75903;52.510;13.396;2024-02-16T08:51:20;13.02;;;7.03;;
85498;SDS011;75903;52.510;13.396;2024-02-16T08:53:45;14.30;;;7.85;;
85498;SDS011;75903;52.510;13.396;2024-02-16T08:56:11;10.85;;;6.70;;
85498;SDS011;75903;52.510;13.396;2024-02-16T08:58:37;13.50;;;7.53;;
85498;SDS011;75903;52.510;13.396;2024-02-16T09:01:04;13.05;;;8.15;;
85498;SDS011;75903;52.510;13.396;2024-02-16T09:03:30;12.02;;;6.65;;
85498;SDS011;75903;52.510;13.396;2024-02-16T09:06:01;14.35;;;6.85;;
85498;SDS011;75903;52.510;13.396;2024-02-16T09:08:27;12.05;;;6.72;;
85498;SDS011;75903;52.510;13.396;2024-02-16T09:10:55;12.90;;;7.25;;
85498;SDS011;75903;52.510;13.396;2024-02-16T09:13:21;13.43;;;7.05;;
85498;SDS011;75903;52.510;13.396;2024-02-16T09:15:46;11.13;;;6.25;;
85498;SDS011;75903;52.510;13.396;2024-02-16T09:18:13;11.50;;;6.95;;
85498;SDS011;75903;52.510;13.396;2024-02-16T09:20:39;15.60;;;7.72;;
85498;SDS011;75903;52.510;13.396;2024-02-16T09:23:04;12.90;;;7.50;;
85498;SDS011;75903;52.510;13.396;2024-02-16T09:25:30;12.63;;;7.10;;
85498;SDS011;75903;52.510;13.396;2024-02-16T09:27:55;12.80;;;6.25;;
85498;SDS011;75903;52.510;13.396;2024-02-16T09:30:20;13.40;;;7.75;;
85498;SDS011;75903;52.510;13.396;2024-02-16T09:32:46;13.27;;;7.63;;
85498;SDS011;75903;52.510;13.396;2024-02-16T09:35:12;11.63;;;5.97;;
85498;SDS011;75903;52.510;13.396;2024-02-16T09:37:38;12.32;;;6.70;;
85498;SDS011;75903;52.510;13.396;2024-02-16T09:40:04;11.30;;;6.90;;
85498;SDS011;75903;52.510;13.396;2024-02-16T09:42:30;13.77;;;6.95;;
85498;SDS011;75903;52.510;13.396;2024-02-16T09:47:24;10.77;;;5.53;;
85498;SDS011;75903;52.510;13.396;2024-02-16T09:49:53;10.48;;;5.60;;
85498;SDS011;75903;52.510;13.396;2024-02-16T09:52:19;10.95;;;5.03;;
85498;SDS011;75903;52.510;13.396;2024-02-16T09:54:45;11.63;;;4.95;;
85498;SDS011;75903;52.510;13.396;2024-02-16T09:57:10;11.18;;;5.38;;
85498;SDS011;75903;52.510;13.396;2024-02-16T09:59:36;10.63;;;5.25;;
85498;SDS011;75903;52.510;13.396;2024-02-16T10:02:02;10.57;;;4.60;;
85498;SDS011;75903;52.510;13.396;2024-02-16T10:04:28;8.10;;;4.70;;
85498;SDS011;75903;52.510;13.396;2024-02-16T10:06:53;7.35;;;3.83;;
85498;SDS011;75903;52.510;13.396;2024-02-16T10:09:26;8.85;;;4.30;;
85498;SDS011;75903;52.510;13.396;2024-02-16T10:11:54;14.70;;;8.35;;
85498;SDS011;75903;52.510;13.396;2024-02-16T10:14:20;10.90;;;6.07;;
85498;SDS011;75903;52.510;13.396;2024-02-16T10:16:46;8.80;;;4.50;;
85498;SDS011;75903;52.510;13.396;2024-02-16T10:19:13;9.13;;;4.50;;
85498;SDS011;75903;52.510;13.396;2024-02-16T10:21:39;10.25;;;3.80;;
85498;SDS011;75903;52.510;13.396;2024-02-16T10:24:06;7.72;;;3.80;;
85498;SDS011;75903;52.510;13.396;2024-02-16T10:26:36;9.80;;;4.22;;
85498;SDS011;75903;52.510;13.396;2024-02-16T10:29:10;8.18;;;3.83;;
85498;SDS011;75903;52.510;13.396;2024-02-16T10:31:36;6.50;;;3.60;;
85498;SDS011;75903;52.510;13.396;2024-02-16T10:34:03;7.32;;;3.92;;
85498;SDS011;75903;52.510;13.396;2024-02-16T10:36:35;7.55;;;4.00;;
85498;SDS011;75903;52.510;13.396;2024-02-16T10:39:02;10.02;;;5.20;;
85498;SDS011;75903;52.510;13.396;2024-02-16T10:41:30;8.07;;;3.58;;
85498;SDS011;75903;52.510;13.396;2024-02-16T10:44:03;7.78;;;3.40;;
85498;SDS011;75903;52.510;13.396;2024-02-16T10:46:29;7.68;;;4.25;;
85498;SDS011;75903;52.510;13.396;2024-02-16T10:48:54;10.65;;;5.18;;
85498;SDS011;75903;52.510;13.396;2024-02-16T10:51:22;13.82;;;5.63;;
85498;SDS011;75903;52.510;13.396;2024-02-16T10:53:53;9.95;;;4.07;;
85498;SDS011;75903;52.510;13.396;2024-02-16T10:56:28;7.13;;;3.55;;
85498;SDS011;75903;52.510;13.396;2024-02-16T10:59:00;6.38;;;2.97;;
85498;SDS011;75903;52.510;13.396;2024-02-16T11:01:27;7.63;;;4.25;;
85498;SDS011;75903;52.510;13.396;2024-02-16T11:04:00;7.10;;;3.42;;
85498;SDS011;75903;52.510;13.396;2024-02-16T11:08:53;9.33;;;3.97;;
85498;SDS011;75903;52.510;13.396;2024-02-16T11:11:24;8.57;;;3.75;;
85498;SDS011;75903;52.510;13.396;2024-02-16T11:13:50;8.25;;;4.30;;
85498;SDS011;75903;52.510;13.396;2024-02-16T11:16:19;7.20;;;3.78;;
85498;SDS011;75903;52.510;13.396;2024-02-16T11:18:47;9.90;;;3.58;;
85498;SDS011;75903;52.510;13.396;2024-02-16T11:21:17;7.63;;;3.55;;
85498;SDS011;75903;52.510;13.396;2024-02-16T11:23:42;7.63;;;3.60;;
85498;SDS011;75903;52.510;13.396;2024-02-16T11:26:10;8.68;;;4.70;;
85498;SDS011;75903;52.510;13.396;2024-02-16T11:28:36;8.05;;;4.50;;
85498;SDS011;75903;52.510;13.396;2024-02-16T11:31:02;7.63;;;4.18;;
85498;SDS011;75903;52.510;13.396;2024-02-16T11:33:29;9.05;;;4.30;;
85498;SDS011;75903;52.510;13.396;2024-02-16T11:35:55;9.63;;;4.53;;
85498;SDS011;75903;52.510;13.396;2024-02-16T11:38:22;10.35;;;4.85;;
85498;SDS011;75903;52.510;13.396;2024-02-16T11:40:56;9.55;;;4.22;;
85498;SDS011;75903;52.510;13.396;2024-02-16T11:43:22;7.72;;;3.75;;
85498;SDS011;75903;52.510;13.396;2024-02-16T11:45:49;6.68;;;3.50;;
85498;SDS011;75903;52.510;13.396;2024-02-16T11:48:24;8.80;;;3.90;;
85498;SDS011;75903;52.510;13.396;2024-02-16T11:50:59;11.13;;;3.53;;
85498;SDS011;75903;52.510;13.396;2024-02-16T11:53:26;8.07;;;3.33;;
85498;SDS011;75903;52.510;13.396;2024-02-16T11:55:51;7.65;;;3.42;;
85498;SDS011;75903;52.510;13.396;2024-02-16T11:58:16;8.55;;;3.78;;
85498;SDS011;75903;52.510;13.396;2024-02-16T12:00:47;8.52;;;4.05;;
85498;SDS011;75903;52.510;13.396;2024-02-16T12:03:20;7.40;;;3.65;;
85498;SDS011;75903;52.510;13.396;2024-02-16T12:05:50;9.93;;;4.28;;
85498;SDS011;75903;52.510;13.396;2024-02-16T12:10:42;7.00;;;3.10;;
85498;SDS011;75903;52.510;13.396;2024-02-16T12:13:08;6.15;;;3.05;;
85498;SDS011;75903;52.510;13.396;2024-02-16T12:15:34;6.85;;;3.45;;
85498;SDS011;75903;52.510;13.396;2024-02-16T12:18:02;5.78;;;2.72;;
85498;SDS011;75903;52.510;13.396;2024-02-16T12:20:28;6.80;;;2.80;;
85498;SDS011;75903;52.510;13.396;2024-02-16T12:22:55;6.93;;;3.05;;
85498;SDS011;75903;52.510;13.396;2024-02-16T12:25:21;6.35;;;2.83;;
85498;SDS011;75903;52.510;13.396;2024-02-16T12:27:46;7.60;;;3.28;;
85498;SDS011;75903;52.510;13.396;2024-02-16T12:30:11;7.65;;;3.35;;
85498;SDS011;75903;52.510;13.396;2024-02-16T12:32:38;6.22;;;2.92;;
85498;SDS011;75903;52.510;13.396;2024-02-16T12:35:03;11.90;;;4.88;;
85498;SDS011;75903;52.510;13.396;2024-02-16T12:37:30;7.13;;;2.67;;
85498;SDS011;75903;52.510;13.396;2024-02-16T12:39:55;8.95;;;3.45;;
85498;SDS011;75903;52.510;13.396;2024-02-16T12:42:21;6.22;;;2.67;;
85498;SDS011;75903;52.510;13.396;2024-02-16T12:44:46;7.25;;;3.60;;
85498;SDS011;75903;52.510;13.396;2024-02-16T12:47:11;7.65;;;3.53;;
85498;SDS011;75903;52.510;13.396;2024-02-16T12:49:37;7.45;;;3.03;;
85498;SDS011;75903;52.510;13.396;2024-02-16T12:52:02;6.97;;;2.67;;
85498;SDS011;75903;52.510;13.396;2024-02-16T12:54:28;8.40;;;3.33;;
85498;SDS011;75903;52.510;13.396;2024-02-16T12:56:53;5.95;;;2.75;;
85498;SDS011;75903;52.510;13.396;2024-02-16T12:59:19;6.55;;;2.83;;
85498;SDS011;75903;52.510;13.396;2024-02-16T13:01:44;7.18;;;2.80;;
85498;SDS011;75903;52.510;13.396;2024-02-16T13:04:11;8.30;;;2.90;;
85498;SDS011;75903;52.510;13.396;2024-02-16T13:06:37;5.65;;;2.67;;
85498;SDS011;75903;52.510;13.396;2024-02-16T13:09:03;6.65;;;2.67;;
85498;SDS011;75903;52.510;13.396;2024-02-16T13:11:29;5.82;;;2.50;;
85498;SDS011;75903;52.510;13.396;2024-02-16T13:13:54;6.63;;;2.75;;
85498;SDS011;75903;52.510;13.396;2024-02-16T13:16:20;8.05;;;2.80;;
85498;SDS011;75903;52.510;13.396;2024-02-16T13:18:46;7.22;;;3.70;;
85498;SDS011;75903;52.510;13.396;2024-02-16T13:21:11;6.68;;;3.25;;
85498;SDS011;75903;52.510;13.396;2024-02-16T13:23:37;7.78;;;2.60;;
85498;SDS011;75903;52.510;13.396;2024-02-16T13:26:02;6.00;;;2.75;;
85498;SDS011;75903;52.510;13.396;2024-02-16T13:28:29;10.77;;;2.85;;
85498;SDS011;75903;52.510;13.396;2024-02-16T13:30:54;7.32;;;1.85;;
85498;SDS011;75903;52.510;13.396;2024-02-16T13:33:20;6.93;;;2.03;;
85498;SDS011;75903;52.510;13.396;2024-02-16T13:35:45;5.90;;;2.13;;
85498;SDS011;75903;52.510;13.396;2024-02-16T13:38:11;5.15;;;2.40;;
85498;SDS011;75903;52.510;13.396;2024-02-16T13:40:36;7.32;;;2.47;;
85498;SDS011;75903;52.510;13.396;2024-02-16T13:43:01;5.28;;;2.10;;
85498;SDS011;75903;52.510;13.396;2024-02-16T13:45:29;5.18;;;3.03;;
85498;SDS011;75903;52.510;13.396;2024-02-16T13:48:10;7.32;;;2.38;;
85498;SDS011;75903;52.510;13.396;2024-02-16T13:50:35;4.72;;;2.00;;
85498;SDS011;75903;52.510;13.396;2024-02-16T13:53:01;5.55;;;1.88;;
85498;SDS011;75903;52.510;13.396;2024-02-16T13:55:26;4.90;;;2.05;;
85498;SDS011;75903;52.510;13.396;2024-02-16T13:57:51;5.90;;;1.90;;
85498;SDS011;75903;52.510;13.396;2024-02-16T14:00:17;10.65;;;2.53;;
85498;SDS011;75903;52.510;13.396;2024-02-16T14:02:43;5.30;;;1.90;;
85498;SDS011;75903;52.510;13.396;2024-02-16T14:05:08;5.00;;;2.30;;
85498;SDS011;75903;52.510;13.396;2024-02-16T14:07:34;7.43;;;2.25;;
85498;SDS011;75903;52.510;13.396;2024-02-16T14:09:59;4.82;;;2.20;;
85498;SDS011;75903;52.510;13.396;2024-02-16T14:12:25;5.47;;;2.05;;
85498;SDS011;75903;52.510;13.396;2024-02-16T14:14:50;6.90;;;2.15;;
85498;SDS011;75903;52.510;13.396;2024-02-16T14:17:15;4.35;;;2.00;;
85498;SDS011;75903;52.510;13.396;2024-02-16T14:19:41;5.80;;;2.22;;
85498;SDS011;75903;52.510;13.396;2024-02-16T14:22:06;5.63;;;2.33;;
85498;SDS011;75903;52.510;13.396;2024-02-16T14:24:32;9.23;;;2.25;;
85498;SDS011;75903;52.510;13.396;2024-02-16T14:26:58;4.57;;;1.90;;
85498;SDS011;75903;52.510;13.396;2024-02-16T14:29:24;6.40;;;2.30;;
85498;SDS011;75903;52.510;13.396;2024-02-16T14:31:50;6.95;;;2.20;;